Time;durP1;ratioP1;P1;durP2;ratioP2;P2;SDS_P1;SDS_P2;PMS_P1;PMS_P2;Temp;Humidity;BMP_temperature;BMP_pressure;BME280_temperature;BME280_humidity;BME280_pressure;Samples;Min_cycle;Max_cycle;Signal;HPM_P1;HPM_P2
2023/07/29 00:02:02;;;;;;;;;;;25.10;99.90;;;;;;5133163;27;20358;-74
2023/07/29 00:04:29;;;;;;;;;;;25.00;99.90;;;;;;5134418;27;19904;-74
2023/07/29 00:06:55;;;;;;;;;;;24.90;99.90;;;;;;5134338;27;19910;-74
2023/07/29 00:09:21;;;;;;;;;;;25.00;99.90;;;;;;5134272;27;19937;-74
2023/07/29 00:11:47;;;;;;;;;;;25.00;99.90;;;;;;5134812;27;19904;-74
2023/07/29 00:14:13;;;;;;;;;;;24.90;99.90;;;;;;5134593;27;19904;-75
2023/07/29 00:16:39;;;;;;;;;;;24.90;99.90;;;;;;5133678;27;20384;-74
2023/07/29 00:19:04;;;;;;;;;;;24.90;99.90;;;;;;5134530;27;20362;-75
2023/07/29 00:21:30;;;;;;;;;;;24.90;99.90;;;;;;5132723;27;20264;-74
2023/07/29 00:23:57;;;;;;;;;;;24.90;99.90;;;;;;5133952;27;19914;-73
2023/07/29 00:26:25;;;;;;;;;;;25.00;99.90;;;;;;5134112;27;19961;-75
2023/07/29 00:28:51;;;;;;;;;;;24.80;99.90;;;;;;5133883;27;19972;-74
2023/07/29 00:31:17;;;;;;;;;;;24.70;99.90;;;;;;5134552;27;19903;-75
2023/07/29 00:33:43;;;;;;;;;;;24.70;99.90;;;;;;5133751;27;19907;-75
2023/07/29 00:36:09;;;;;;;;;;;24.60;99.90;;;;;;5134214;27;19960;-73
2023/07/29 00:38:35;;;;;;;;;;;24.60;99.90;;;;;;5134939;27;19986;-74
2023/07/29 00:41:02;;;;;;;;;;;24.50;99.90;;;;;;5134104;28;20312;-74
2023/07/29 00:43:28;;;;;;;;;;;24.60;99.90;;;;;;5133994;27;19903;-74
2023/07/29 00:45:54;;;;;;;;;;;24.60;99.90;;;;;;5133909;27;19904;-74
2023/07/29 00:48:21;;;;;;;;;;;24.50;99.90;;;;;;5133788;27;19911;-74
2023/07/29 00:50:46;;;;;;;;;;;24.40;99.90;;;;;;5134427;27;19907;-74
2023/07/29 00:53:12;;;;;;;;;;;24.30;99.90;;;;;;5133701;27;19909;-74
2023/07/29 00:55:38;;;;;;;;;;;24.30;99.90;;;;;;5134141;27;19904;-75
2023/07/29 00:58:04;;;;;;;;;;;24.40;99.90;;;;;;5134184;27;20347;-74
2023/07/29 01:00:30;;;;;;;;;;;24.40;99.90;;;;;;5133858;27;19903;-75
2023/07/29 01:02:56;;;;;;;;;;;24.30;99.90;;;;;;5133829;27;19903;-74
2023/07/29 01:05:22;;;;;;;;;;;24.20;99.90;;;;;;5133792;27;19975;-74
2023/07/29 01:08:06;;;;;;;;;;;24.10;99.90;;;;;;5134115;27;19972;-74
2023/07/29 01:10:39;;;;;;;;;;;24.10;99.90;;;;;;5133693;27;20390;-74
2023/07/29 01:13:26;;;;;;;;;;;24.20;99.90;;;;;;5133982;27;20394;-74
2023/07/29 01:15:51;;;;;;;;;;;24.30;99.90;;;;;;5133916;27;19987;-74
2023/07/29 01:18:20;;;;;;;;;;;24.40;99.90;;;;;;5134046;28;19910;-74
2023/07/29 01:20:47;;;;;;;;;;;24.40;99.90;;;;;;5133678;27;19907;-74
2023/07/29 01:23:13;;;;;;;;;;;24.40;99.90;;;;;;5132020;28;19904;-74
2023/07/29 01:25:39;;;;;;;;;;;24.40;99.90;;;;;;5133541;27;20341;-75
2023/07/29 01:28:05;;;;;;;;;;;24.50;99.90;;;;;;5135040;27;19908;-75
2023/07/29 01:30:33;;;;;;;;;;;24.50;99.90;;;;;;5137903;27;19903;-75
2023/07/29 01:33:04;;;;;;;;;;;24.40;99.90;;;;;;5137419;27;19903;-74
2023/07/29 01:35:33;;;;;;;;;;;24.40;99.90;;;;;;5135868;27;19915;-75
2023/07/29 01:38:10;;;;;;;;;;;24.40;99.90;;;;;;5137625;27;19910;-74
2023/07/29 01:40:36;;;;;;;;;;;24.50;99.90;;;;;;5137508;27;19911;-74
2023/07/29 01:43:02;;;;;;;;;;;24.60;99.90;;;;;;5137236;27;19910;-75
2023/07/29 01:45:31;;;;;;;;;;;24.70;99.90;;;;;;5137948;27;19903;-75
2023/07/29 01:47:57;;;;;;;;;;;24.80;99.90;;;;;;5137019;27;19937;-74
2023/07/29 01:50:23;;;;;;;;;;;24.90;99.90;;;;;;5137055;27;19907;-74
2023/07/29 01:52:48;;;;;;;;;;;24.80;99.90;;;;;;5136968;27;19956;-75
2023/07/29 01:55:14;;;;;;;;;;;24.80;99.90;;;;;;5136813;27;20315;-74
2023/07/29 01:57:40;;;;;;;;;;;24.90;99.90;;;;;;5136954;27;19903;-74
2023/07/29 02:00:06;;;;;;;;;;;24.70;99.90;;;;;;5136890;27;19930;-74
2023/07/29 02:02:32;;;;;;;;;;;24.70;99.90;;;;;;5137354;27;20378;-74
2023/07/29 02:04:58;;;;;;;;;;;24.60;99.90;;;;;;5137094;27;19904;-74
2023/07/29 02:07:26;;;;;;;;;;;24.40;99.90;;;;;;5137238;27;19903;-74
2023/07/29 02:09:52;;;;;;;;;;;24.40;99.90;;;;;;5136801;27;20382;-75
2023/07/29 02:12:17;;;;;;;;;;;24.40;99.90;;;;;;5137157;27;19904;-75
2023/07/29 02:14:43;;;;;;;;;;;24.40;99.90;;;;;;5136572;27;20372;-75
2023/07/29 02:17:09;;;;;;;;;;;24.40;99.90;;;;;;5137026;27;19910;-74
2023/07/29 02:19:35;;;;;;;;;;;24.30;99.90;;;;;;5136734;27;20342;-74
2023/07/29 02:22:01;;;;;;;;;;;24.20;99.90;;;;;;5136405;27;19903;-75
2023/07/29 02:24:27;;;;;;;;;;;24.30;99.90;;;;;;5136299;27;19907;-75
2023/07/29 02:26:53;;;;;;;;;;;24.20;99.90;;;;;;5136334;27;20383;-75
2023/07/29 02:29:18;;;;;;;;;;;24.10;99.90;;;;;;5136744;27;19980;-75
2023/07/29 02:31:44;;;;;;;;;;;24.10;99.90;;;;;;5136612;27;19925;-75
2023/07/29 02:34:10;;;;;;;;;;;24.00;99.90;;;;;;5136365;27;19911;-75
2023/07/29 02:36:36;;;;;;;;;;;24.00;99.90;;;;;;5136225;27;19903;-74
2023/07/29 02:39:02;;;;;;;;;;;24.10;99.90;;;;;;5135535;27;19904;-74
2023/07/29 02:41:27;;;;;;;;;;;24.00;99.90;;;;;;5136147;27;19910;-75
2023/07/29 02:43:53;;;;;;;;;;;24.00;99.90;;;;;;5136048;27;19903;-74
2023/07/29 02:46:19;;;;;;;;;;;24.00;99.90;;;;;;5136021;27;19911;-72
2023/07/29 02:48:45;;;;;;;;;;;24.00;99.90;;;;;;5135955;27;20002;-75
2023/07/29 02:51:11;;;;;;;;;;;24.00;99.90;;;;;;5135831;27;20416;-74
2023/07/29 02:53:36;;;;;;;;;;;24.00;99.90;;;;;;5136076;27;19933;-75
2023/07/29 02:56:09;;;;;;;;;;;23.90;99.90;;;;;;5135726;27;19998;-74
2023/07/29 02:58:36;;;;;;;;;;;24.00;99.90;;;;;;5136165;27;19909;-75
2023/07/29 03:01:03;;;;;;;;;;;23.80;99.90;;;;;;5135596;27;19903;-75
2023/07/29 03:03:29;;;;;;;;;;;23.90;99.90;;;;;;5135898;27;19949;-74
2023/07/29 03:06:05;;;;;;;;;;;23.80;99.90;;;;;;5135488;27;19904;-74
2023/07/29 03:08:31;;;;;;;;;;;23.90;99.90;;;;;;5135653;27;20268;-74
2023/07/29 03:10:57;;;;;;;;;;;23.90;99.90;;;;;;5135439;27;19915;-74
2023/07/29 03:13:23;;;;;;;;;;;24.00;99.90;;;;;;5135940;27;19994;-75
2023/07/29 03:15:49;;;;;;;;;;;24.00;99.90;;;;;;5135643;27;19946;-74
2023/07/29 03:18:15;;;;;;;;;;;24.00;99.90;;;;;;5133961;27;20397;-74
2023/07/29 03:20:41;;;;;;;;;;;24.00;99.90;;;;;;5133843;27;19961;-74
2023/07/29 03:23:07;;;;;;;;;;;23.80;99.90;;;;;;5134992;27;19908;-74
2023/07/29 03:25:33;;;;;;;;;;;23.70;99.90;;;;;;5135437;27;19904;-74
2023/07/29 03:27:59;;;;;;;;;;;23.70;99.90;;;;;;5133915;27;19915;-74
2023/07/29 03:30:24;;;;;;;;;;;23.70;99.90;;;;;;5133766;27;20355;-75
2023/07/29 03:32:50;;;;;;;;;;;23.70;99.90;;;;;;5135578;27;19903;-74
2023/07/29 03:35:16;;;;;;;;;;;23.80;99.90;;;;;;5134893;27;20017;-74
2023/07/29 03:37:42;;;;;;;;;;;23.90;99.90;;;;;;5135493;27;19904;-75
2023/07/29 03:40:09;;;;;;;;;;;23.80;99.90;;;;;;5133813;27;19903;-74
2023/07/29 03:42:35;;;;;;;;;;;23.90;99.90;;;;;;5135230;27;19950;-75
2023/07/29 03:45:01;;;;;;;;;;;23.90;99.90;;;;;;5134924;27;19904;-74
2023/07/29 03:47:27;;;;;;;;;;;23.90;99.90;;;;;;5135246;27;20373;-73
2023/07/29 03:49:53;;;;;;;;;;;24.00;99.90;;;;;;5134707;27;20284;-74
2023/07/29 03:52:19;;;;;;;;;;;24.00;99.90;;;;;;5133634;27;20018;-75
2023/07/29 03:54:45;;;;;;;;;;;24.00;99.90;;;;;;5134464;27;19997;-75
2023/07/29 03:57:10;;;;;;;;;;;24.00;99.90;;;;;;5134567;27;19909;-74
2023/07/29 03:59:36;;;;;;;;;;;24.00;99.90;;;;;;5134553;27;19911;-74
2023/07/29 04:02:02;;;;;;;;;;;23.90;99.90;;;;;;5134612;27;19945;-74
2023/07/29 04:04:28;;;;;;;;;;;24.00;99.90;;;;;;5134789;27;19990;-74
2023/07/29 04:06:54;;;;;;;;;;;24.00;99.90;;;;;;5134463;27;20267;-75
2023/07/29 04:09:19;;;;;;;;;;;24.00;99.90;;;;;;5132814;27;19963;-75
2023/07/29 04:11:45;;;;;;;;;;;23.90;99.90;;;;;;5133039;27;19910;-75
2023/07/29 04:14:11;;;;;;;;;;;23.90;99.90;;;;;;5133941;27;19903;-74
2023/07/29 04:16:37;;;;;;;;;;;24.00;99.90;;;;;;5134393;27;19995;-74
2023/07/29 04:19:02;;;;;;;;;;;23.90;99.90;;;;;;5134282;27;19953;-75
2023/07/29 04:21:28;;;;;;;;;;;24.00;99.90;;;;;;5134481;27;20386;-75
2023/07/29 04:23:54;;;;;;;;;;;24.00;99.90;;;;;;5133997;27;19903;-74
2023/07/29 04:26:20;;;;;;;;;;;24.00;99.90;;;;;;5134142;27;19904;-74
2023/07/29 04:28:46;;;;;;;;;;;24.00;99.90;;;;;;5134048;27;19911;-75
2023/07/29 04:31:12;;;;;;;;;;;23.90;99.90;;;;;;5134111;27;19946;-75
2023/07/29 04:33:37;;;;;;;;;;;23.90;99.90;;;;;;5133876;27;19914;-75
2023/07/29 04:36:04;;;;;;;;;;;24.00;99.90;;;;;;5134598;27;19952;-75
2023/07/29 04:38:33;;;;;;;;;;;24.10;99.90;;;;;;5134558;27;20350;-73
2023/07/29 04:41:02;;;;;;;;;;;24.10;99.90;;;;;;5132613;27;20369;-73
2023/07/29 04:43:28;;;;;;;;;;;24.20;99.90;;;;;;5133947;27;19911;-75
2023/07/29 04:45:54;;;;;;;;;;;24.20;99.90;;;;;;5132592;28;19911;-74
2023/07/29 04:48:20;;;;;;;;;;;24.40;99.90;;;;;;5133197;28;20283;-75
2023/07/29 04:50:46;;;;;;;;;;;24.40;99.90;;;;;;5132637;28;19903;-75
2023/07/29 04:53:12;;;;;;;;;;;24.40;99.90;;;;;;5131759;28;19910;-74
2023/07/29 04:55:37;;;;;;;;;;;24.50;99.90;;;;;;5133814;28;19907;-75
2023/07/29 04:58:03;;;;;;;;;;;24.50;99.90;;;;;;5134043;28;19903;-74
2023/07/29 05:00:29;;;;;;;;;;;24.50;99.90;;;;;;5133940;28;19904;-74
2023/07/29 05:02:55;;;;;;;;;;;24.60;99.90;;;;;;5135374;27;19910;-75
2023/07/29 05:05:20;;;;;;;;;;;24.60;99.90;;;;;;5138085;27;19903;-75
2023/07/29 05:07:46;;;;;;;;;;;24.70;99.90;;;;;;5137872;27;19959;-77
2023/07/29 05:10:12;;;;;;;;;;;24.90;99.90;;;;;;5138096;27;19917;-74
2023/07/29 05:12:38;;;;;;;;;;;25.10;99.90;;;;;;5136553;27;19926;-75
2023/07/29 05:15:04;;;;;;;;;;;25.30;99.90;;;;;;5138096;27;19903;-75
2023/07/29 05:17:30;;;;;;;;;;;25.50;99.90;;;;;;5137743;27;19997;-75
2023/07/29 05:19:56;;;;;;;;;;;25.80;99.90;;;;;;5137804;27;20342;-75
2023/07/29 05:22:22;;;;;;;;;;;25.90;99.90;;;;;;5137613;27;19956;-75
2023/07/29 05:24:47;;;;;;;;;;;25.90;99.90;;;;;;5137457;27;19904;-75
2023/07/29 05:27:13;;;;;;;;;;;26.30;99.90;;;;;;5136178;27;19911;-75
2023/07/29 05:29:39;;;;;;;;;;;26.60;99.90;;;;;;5136044;27;19950;-75
2023/07/29 05:32:05;;;;;;;;;;;26.80;99.90;;;;;;5137630;27;19908;-75
2023/07/29 05:34:31;;;;;;;;;;;27.10;99.90;;;;;;5137260;27;19953;-75
2023/07/29 05:36:57;;;;;;;;;;;27.30;99.90;;;;;;5137424;27;19907;-75
2023/07/29 05:39:24;;;;;;;;;;;27.70;99.90;;;;;;5137676;27;20346;-75
2023/07/29 05:41:49;;;;;;;;;;;27.60;99.90;;;;;;5135874;27;19908;-75
2023/07/29 05:44:15;;;;;;;;;;;27.90;99.90;;;;;;5137401;27;20361;-75
2023/07/29 05:46:41;;;;;;;;;;;28.10;99.90;;;;;;5137173;27;19903;-76
2023/07/29 05:49:07;;;;;;;;;;;28.10;99.90;;;;;;5137522;27;19955;-75
2023/07/29 05:51:33;;;;;;;;;;;28.40;99.90;;;;;;5137309;27;19990;-75
2023/07/29 05:53:59;;;;;;;;;;;29.00;99.90;;;;;;5136892;27;19904;-75
2023/07/29 05:56:24;;;;;;;;;;;29.30;99.90;;;;;;5137010;27;19911;-75
2023/07/29 05:58:50;;;;;;;;;;;29.40;99.90;;;;;;5137016;27;19925;-76
2023/07/29 06:01:16;;;;;;;;;;;29.60;99.90;;;;;;5137321;27;19948;-75
2023/07/29 06:03:42;;;;;;;;;;;30.80;99.90;;;;;;5137072;27;19903;-76
2023/07/29 06:06:08;;;;;;;;;;;31.60;99.90;;;;;;5136867;27;19907;-76
2023/07/29 06:08:34;;;;;;;;;;;32.00;99.90;;;;;;5135171;27;19908;-75
2023/07/29 06:11:00;;;;;;;;;;;32.30;99.90;;;;;;5136583;27;19964;-76
2023/07/29 06:13:26;;;;;;;;;;;32.80;99.90;;;;;;5136402;27;20360;-75
2023/07/29 06:15:52;;;;;;;;;;;32.30;99.90;;;;;;5135776;27;20278;-76
2023/07/29 06:18:17;;;;;;;;;;;33.40;99.90;;;;;;5136681;27;19907;-75
2023/07/29 06:20:43;;;;;;;;;;;34.10;99.90;;;;;;5136408;27;20002;-75
2023/07/29 06:23:09;;;;;;;;;;;33.40;99.90;;;;;;5136412;27;19903;-75
2023/07/29 06:25:35;;;;;;;;;;;32.40;99.90;;;;;;5136335;27;19903;-75
2023/07/29 06:28:00;;;;;;;;;;;31.20;99.90;;;;;;5136522;27;19907;-76
2023/07/29 06:30:26;;;;;;;;;;;30.40;99.90;;;;;;5136279;27;19903;-75
2023/07/29 06:32:52;;;;;;;;;;;30.60;99.90;;;;;;5136823;27;19910;-75
2023/07/29 06:35:18;;;;;;;;;;;30.00;99.90;;;;;;5136069;27;19916;-76
2023/07/29 06:37:44;;;;;;;;;;;30.60;99.90;;;;;;5136685;27;19910;-75
2023/07/29 06:40:10;;;;;;;;;;;31.80;99.90;;;;;;5136126;27;19956;-76
2023/07/29 06:42:36;;;;;;;;;;;32.90;99.90;;;;;;5136326;27;19910;-76
2023/07/29 06:45:03;;;;;;;;;;;34.50;99.90;;;;;;5136101;27;19909;-75
2023/07/29 06:47:29;;;;;;;;;;;35.60;99.90;;;;;;5136113;27;19960;-76
2023/07/29 06:49:55;;;;;;;;;;;36.50;99.90;;;;;;5135830;27;19915;-76
2023/07/29 06:52:20;;;;;;;;;;;37.00;99.90;;;;;;5136124;27;20294;-76
2023/07/29 06:54:46;;;;;;;;;;;37.60;99.90;;;;;;5135747;27;19957;-76
2023/07/29 06:57:12;;;;;;;;;;;37.30;99.90;;;;;;5136286;27;19903;-76
2023/07/29 06:59:38;;;;;;;;;;;37.70;99.90;;;;;;5134326;27;19907;-76
2023/07/29 07:02:04;;;;;;;;;;;38.50;99.90;;;;;;5135953;27;19974;-76
2023/07/29 07:04:29;;;;;;;;;;;38.30;99.90;;;;;;5135911;27;20390;-76
2023/07/29 07:06:55;;;;;;;;;;;38.00;99.90;;;;;;5134268;27;19904;-74
2023/07/29 07:09:21;;;;;;;;;;;37.40;99.90;;;;;;5135612;27;19918;-74
2023/07/29 07:11:47;;;;;;;;;;;38.20;99.90;;;;;;5135533;27;20287;-74
2023/07/29 07:14:13;;;;;;;;;;;38.60;99.90;;;;;;5135910;27;19910;-74
2023/07/29 07:16:39;;;;;;;;;;;38.10;99.90;;;;;;5135543;27;19903;-74
2023/07/29 07:19:05;;;;;;;;;;;38.30;99.90;;;;;;5135294;27;20392;-75
2023/07/29 07:21:32;;;;;;;;;;;38.50;99.90;;;;;;5135173;27;19903;-71
2023/07/29 07:23:58;;;;;;;;;;;38.80;99.90;;;;;;5135109;27;19907;-75
2023/07/29 07:26:24;;;;;;;;;;;38.20;99.90;;;;;;5133771;27;19903;-75
2023/07/29 07:28:51;;;;;;;;;;;38.00;99.90;;;;;;5133768;27;19911;-74
2023/07/29 07:31:17;;;;;;;;;;;37.60;99.90;;;;;;5133911;27;19932;-74
2023/07/29 07:33:43;;;;;;;;;;;37.50;99.90;;;;;;5133552;27;19911;-73
2023/07/29 07:36:09;;;;;;;;;;;36.30;99.90;;;;;;5133690;27;19907;-74
2023/07/29 07:38:35;;;;;;;;;;;36.10;99.90;;;;;;5134881;27;19915;-74
2023/07/29 07:41:01;;;;;;;;;;;36.30;99.90;;;;;;5135043;27;19903;-74
2023/07/29 07:43:28;;;;;;;;;;;35.40;99.90;;;;;;5133556;27;19903;-75
2023/07/29 07:45:59;;;;;;;;;;;34.50;99.90;;;;;;5134935;27;19919;-75
2023/07/29 07:48:25;;;;;;;;;;;35.10;99.90;;;;;;5133425;27;19911;-73
2023/07/29 07:50:51;;;;;;;;;;;34.70;99.90;;;;;;5134794;27;19948;-76
2023/07/29 07:53:17;;;;;;;;;;;35.00;99.90;;;;;;5134759;27;20320;-75
2023/07/29 07:55:42;;;;;;;;;;;35.30;99.90;;;;;;5134665;27;19949;-75
2023/07/29 07:58:08;;;;;;;;;;;35.00;99.90;;;;;;5135040;27;19914;-75
2023/07/29 08:00:34;;;;;;;;;;;35.40;99.90;;;;;;5134862;27;19903;-75
2023/07/29 08:03:00;;;;;;;;;;;35.50;99.90;;;;;;5135002;27;20212;-75
2023/07/29 08:05:26;;;;;;;;;;;35.50;99.90;;;;;;5134536;27;19994;-75
2023/07/29 08:07:51;;;;;;;;;;;35.10;99.90;;;;;;5134882;27;19903;-75
2023/07/29 08:10:17;;;;;;;;;;;35.20;99.90;;;;;;5134350;27;20306;-75
2023/07/29 08:12:43;;;;;;;;;;;35.50;99.90;;;;;;5134512;27;19910;-75
2023/07/29 08:15:09;;;;;;;;;;;36.00;99.90;;;;;;5134384;27;19903;-75
2023/07/29 08:17:35;;;;;;;;;;;35.90;99.90;;;;;;5134803;27;20263;-75
2023/07/29 08:20:00;;;;;;;;;;;35.70;99.90;;;;;;5134541;27;19912;-75
2023/07/29 08:22:26;;;;;;;;;;;35.40;99.90;;;;;;5134608;27;19941;-76
2023/07/29 08:24:52;;;;;;;;;;;35.40;99.90;;;;;;5134024;27;20347;-75
2023/07/29 08:27:18;;;;;;;;;;;34.90;99.90;;;;;;5134395;27;19908;-76
2023/07/29 08:29:44;;;;;;;;;;;34.90;99.90;;;;;;5134175;27;19911;-75
2023/07/29 08:32:09;;;;;;;;;;;34.70;99.90;;;;;;5132840;27;19904;-75
2023/07/29 08:34:35;;;;;;;;;;;34.80;99.90;;;;;;5134034;27;19937;-75
2023/07/29 08:37:01;;;;;;;;;;;34.80;99.90;;;;;;5133490;27;19907;-74
2023/07/29 08:39:28;;;;;;;;;;;35.20;99.90;;;;;;5132525;27;19930;-75
2023/07/29 08:42:11;;;;;;;;;;;35.20;99.90;;;;;;5132630;27;20220;-74
2023/07/29 08:44:43;;;;;;;;;;;35.10;99.90;;;;;;5134056;27;19907;-74
2023/07/29 08:47:09;;;;;;;;;;;35.20;99.90;;;;;;5133988;27;20274;-74
2023/07/29 08:49:36;;;;;;;;;;;34.80;99.90;;;;;;5133830;27;19912;-74
2023/07/29 08:52:02;;;;;;;;;;;34.90;99.90;;;;;;5133914;27;19911;-74
2023/07/29 08:54:28;;;;;;;;;;;34.80;99.90;;;;;;5133917;27;19908;-74
2023/07/29 08:56:54;;;;;;;;;;;34.80;99.90;;;;;;5132567;28;19990;-75
2023/07/29 08:59:20;;;;;;;;;;;34.80;99.90;;;;;;5132466;28;19976;-75
2023/07/29 09:01:47;;;;;;;;;;;34.90;99.90;;;;;;5134053;27;20286;-74
2023/07/29 09:04:13;;;;;;;;;;;35.00;99.90;;;;;;5133790;27;19903;-75
2023/07/29 09:06:39;;;;;;;;;;;35.10;99.90;;;;;;5133935;27;20000;-75
2023/07/29 09:09:05;;;;;;;;;;;34.70;99.90;;;;;;5133649;27;19958;-75
2023/07/29 09:11:31;;;;;;;;;;;34.40;99.90;;;;;;5133724;27;19972;-75
2023/07/29 09:13:57;;;;;;;;;;;34.70;99.90;;;;;;5132351;28;20347;-74
2023/07/29 09:16:23;;;;;;;;;;;34.60;99.90;;;;;;5133766;27;20358;-75
2023/07/29 09:18:50;;;;;;;;;;;34.40;99.90;;;;;;5132320;28;20266;-74
2023/07/29 09:21:17;;;;;;;;;;;34.40;99.90;;;;;;5133823;27;20239;-74
2023/07/29 09:23:43;;;;;;;;;;;33.90;99.90;;;;;;5133745;27;19925;-75
2023/07/29 09:26:09;;;;;;;;;;;33.60;99.90;;;;;;5132169;28;19904;-74
2023/07/29 09:28:36;;;;;;;;;;;33.70;99.90;;;;;;5133567;27;19938;-74
2023/07/29 09:31:02;;;;;;;;;;;33.40;99.90;;;;;;5133634;27;19910;-75
2023/07/29 09:33:39;;;;;;;;;;;32.70;99.90;;;;;;5133557;28;20457;-75
2023/07/29 09:36:08;;;;;;;;;;;33.00;99.90;;;;;;5134069;27;19973;-74
2023/07/29 09:38:35;;;;;;;;;;;32.80;99.90;;;;;;5133013;28;19903;-74
2023/07/29 09:41:02;;;;;;;;;;;33.20;99.90;;;;;;5134503;27;20041;-74
2023/07/29 09:43:36;;;;;;;;;;;33.30;99.90;;;;;;5133387;28;20291;-73
2023/07/29 09:46:03;;;;;;;;;;;33.30;99.90;;;;;;5133642;27;19903;-74
2023/07/29 09:48:33;;;;;;;;;;;33.70;99.90;;;;;;5132563;27;20428;-74
2023/07/29 09:50:58;;;;;;;;;;;33.70;99.90;;;;;;5137103;27;19955;-74
2023/07/29 09:53:24;;;;;;;;;;;33.80;99.90;;;;;;5136980;27;19903;-74
2023/07/29 09:55:53;;;;;;;;;;;33.80;99.90;;;;;;5136767;27;19903;-74
2023/07/29 09:58:28;;;;;;;;;;;34.10;99.90;;;;;;5135655;27;19913;-74
2023/07/29 10:00:53;;;;;;;;;;;33.70;99.90;;;;;;5137305;27;20250;-74
2023/07/29 10:03:21;;;;;;;;;;;34.00;99.90;;;;;;5135625;27;20320;-74
2023/07/29 10:05:47;;;;;;;;;;;34.10;99.90;;;;;;5136906;27;19903;-74
2023/07/29 10:08:13;;;;;;;;;;;34.00;99.90;;;;;;5136812;27;19914;-74
2023/07/29 10:10:41;;;;;;;;;;;34.00;99.90;;;;;;5136711;27;20351;-73
2023/07/29 10:13:07;;;;;;;;;;;33.70;99.90;;;;;;5135344;27;20278;-74
2023/07/29 10:15:33;;;;;;;;;;;33.80;99.90;;;;;;5135344;27;19997;-74
2023/07/29 10:17:59;;;;;;;;;;;34.00;99.90;;;;;;5135241;27;19956;-74
2023/07/29 10:20:25;;;;;;;;;;;34.10;99.90;;;;;;5136447;27;19903;-74
2023/07/29 10:22:52;;;;;;;;;;;33.90;99.90;;;;;;5136521;27;19910;-74
2023/07/29 10:25:19;;;;;;;;;;;33.80;99.90;;;;;;5136295;27;20270;-74
2023/07/29 10:28:11;;;;;;;;;;;33.60;99.90;;;;;;5136414;27;19904;-75
2023/07/29 10:30:37;;;;;;;;;;;33.40;99.90;;;;;;5132456;27;19910;-74
2023/07/29 10:33:07;;;;;;;;;;;33.40;99.90;;;;;;5136334;27;19903;-74
2023/07/29 10:35:33;;;;;;;;;;;33.70;99.90;;;;;;5136165;27;19923;-73
2023/07/29 10:37:59;;;;;;;;;;;33.60;99.90;;;;;;5136513;27;19956;-73
2023/07/29 10:40:25;;;;;;;;;;;33.90;99.90;;;;;;5136221;27;19903;-73
2023/07/29 10:43:09;;;;;;;;;;;34.00;99.90;;;;;;5136691;27;19910;-73
2023/07/29 10:45:38;;;;;;;;;;;34.00;99.90;;;;;;5136137;27;19904;-73
2023/07/29 10:48:33;;;;;;;;;;;34.20;99.90;;;;;;5136486;27;19998;-73
2023/07/29 10:51:17;;;;;;;;;;;34.10;99.90;;;;;;5134542;27;19903;-74
2023/07/29 10:53:43;;;;;;;;;;;33.70;99.90;;;;;;5134331;27;19986;-74
2023/07/29 10:56:09;;;;;;;;;;;33.50;99.90;;;;;;5135827;27;19995;-74
2023/07/29 10:58:35;;;;;;;;;;;33.50;99.90;;;;;;5136147;27;19922;-75
2023/07/29 11:01:00;;;;;;;;;;;33.50;99.90;;;;;;5135249;27;19910;-74
2023/07/29 11:03:28;;;;;;;;;;;33.40;99.90;;;;;;5135662;27;19942;-75
2023/07/29 11:05:54;;;;;;;;;;;33.20;99.90;;;;;;5136178;27;20357;-75
2023/07/29 11:08:27;;;;;;;;;;;33.40;99.90;;;;;;5135872;27;20002;-75
2023/07/29 11:11:03;;;;;;;;;;;33.50;99.90;;;;;;5135702;27;20333;-75
2023/07/29 11:13:30;;;;;;;;;;;33.50;99.90;;;;;;5136043;27;19939;-76
2023/07/29 11:15:58;;;;;;;;;;;33.60;99.90;;;;;;5135487;27;19904;-75
2023/07/29 11:18:29;;;;;;;;;;;33.70;99.90;;;;;;5135852;27;19918;-75
2023/07/29 11:20:56;;;;;;;;;;;33.70;99.90;;;;;;5135526;27;19915;-75
2023/07/29 11:23:27;;;;;;;;;;;33.60;99.90;;;;;;5136108;27;19904;-78
2023/07/29 11:25:52;;;;;;;;;;;33.80;99.90;;;;;;5135260;27;19904;-76
2023/07/29 11:28:18;;;;;;;;;;;33.70;99.90;;;;;;5135771;27;19911;-75
2023/07/29 11:30:44;;;;;;;;;;;33.70;99.90;;;;;;5135318;27;20012;-75
2023/07/29 11:33:11;;;;;;;;;;;33.80;99.90;;;;;;5135540;27;19903;-75
2023/07/29 11:35:37;;;;;;;;;;;33.80;99.90;;;;;;5135179;27;19918;-76
2023/07/29 11:38:03;;;;;;;;;;;33.70;99.90;;;;;;5135361;27;20404;-75
2023/07/29 11:40:29;;;;;;;;;;;33.70;99.90;;;;;;5133553;27;19903;-75
2023/07/29 11:42:55;;;;;;;;;;;33.80;99.90;;;;;;5135065;27;19925;-74
2023/07/29 11:45:22;;;;;;;;;;;33.90;99.90;;;;;;5135381;27;19903;-74
2023/07/29 11:47:47;;;;;;;;;;;34.10;99.90;;;;;;5134788;27;19948;-75
2023/07/29 11:50:14;;;;;;;;;;;33.90;99.90;;;;;;5133346;27;20329;-75
2023/07/29 11:52:40;;;;;;;;;;;33.60;99.90;;;;;;5134784;27;19910;-75
2023/07/29 11:55:06;;;;;;;;;;;33.70;99.90;;;;;;5134642;27;19903;-75
2023/07/29 11:57:36;;;;;;;;;;;33.60;99.90;;;;;;5135302;27;19903;-75
2023/07/29 12:00:04;;;;;;;;;;;33.50;99.90;;;;;;5134926;27;19949;-75
2023/07/29 12:02:30;;;;;;;;;;;33.40;99.90;;;;;;5134600;27;19929;-75
2023/07/29 12:04:57;;;;;;;;;;;33.50;99.90;;;;;;5134791;27;19904;-75
2023/07/29 12:07:22;;;;;;;;;;;33.60;99.90;;;;;;5134561;27;19912;-74
2023/07/29 12:09:49;;;;;;;;;;;33.50;99.90;;;;;;5134615;27;19919;-74
2023/07/29 12:12:15;;;;;;;;;;;33.60;99.90;;;;;;5133714;27;19938;-74
2023/07/29 12:14:43;;;;;;;;;;;33.80;99.90;;;;;;5134638;27;19946;-74
2023/07/29 12:17:09;;;;;;;;;;;33.40;99.90;;;;;;5134326;27;19972;-74
2023/07/29 12:19:36;;;;;;;;;;;33.60;99.90;;;;;;5134323;27;19903;-75
2023/07/29 12:22:06;;;;;;;;;;;33.80;99.90;;;;;;5132954;27;20274;-74
2023/07/29 12:24:32;;;;;;;;;;;33.90;99.90;;;;;;5134359;27;19908;-74
2023/07/29 12:26:58;;;;;;;;;;;33.60;99.90;;;;;;5134575;27;19919;-74
2023/07/29 12:29:25;;;;;;;;;;;33.60;99.90;;;;;;5134148;27;20275;-74
2023/07/29 12:31:58;;;;;;;;;;;33.70;99.90;;;;;;5132861;27;20367;-75
2023/07/29 12:34:25;;;;;;;;;;;33.70;99.90;;;;;;5134163;27;20372;-74
2023/07/29 12:36:51;;;;;;;;;;;33.30;99.90;;;;;;5132712;27;20351;-74
2023/07/29 12:39:21;;;;;;;;;;;33.70;99.90;;;;;;5133613;27;19903;-74
2023/07/29 12:41:48;;;;;;;;;;;33.80;99.90;;;;;;5134499;27;19903;-74
2023/07/29 12:44:14;;;;;;;;;;;33.60;99.90;;;;;;5132574;27;20378;-74
2023/07/29 12:46:40;;;;;;;;;;;33.30;99.90;;;;;;5133934;27;19903;-74
2023/07/29 12:49:05;;;;;;;;;;;33.40;99.90;;;;;;5133877;27;19912;-74
2023/07/29 12:51:31;;;;;;;;;;;33.50;99.90;;;;;;5134501;27;19904;-74
2023/07/29 12:53:57;;;;;;;;;;;33.60;99.90;;;;;;5133752;27;19903;-74
2023/07/29 12:56:23;;;;;;;;;;;33.50;99.90;;;;;;5133962;27;19914;-74
2023/07/29 12:58:49;;;;;;;;;;;33.60;99.90;;;;;;5134082;28;19907;-75
2023/07/29 13:01:18;;;;;;;;;;;33.70;99.90;;;;;;5134096;27;19910;-74
2023/07/29 13:03:47;;;;;;;;;;;33.90;99.90;;;;;;5134115;27;20270;-74
2023/07/29 13:06:13;;;;;;;;;;;33.60;99.90;;;;;;5133965;27;20002;-74
2023/07/29 13:08:39;;;;;;;;;;;33.60;99.90;;;;;;5134280;28;20040;-74
2023/07/29 13:11:05;;;;;;;;;;;33.40;99.90;;;;;;5133667;28;19904;-74
2023/07/29 13:13:30;;;;;;;;;;;33.70;99.90;;;;;;5134215;27;20407;-75
2023/07/29 13:15:57;;;;;;;;;;;33.90;99.90;;;;;;5132388;28;19939;-74
2023/07/29 13:18:22;;;;;;;;;;;33.60;99.90;;;;;;5132336;28;19976;-75
2023/07/29 13:20:48;;;;;;;;;;;33.60;99.90;;;;;;5133903;27;20421;-74
2023/07/29 13:23:15;;;;;;;;;;;33.40;99.90;;;;;;5133910;27;19903;-73
2023/07/29 13:25:41;;;;;;;;;;;33.40;99.90;;;;;;5137279;27;19903;-74
2023/07/29 13:28:08;;;;;;;;;;;33.50;99.90;;;;;;5137358;27;19903;-74
2023/07/29 13:30:34;;;;;;;;;;;33.70;99.90;;;;;;5138230;27;19911;-73
2023/07/29 13:33:00;;;;;;;;;;;33.20;99.90;;;;;;5137797;27;19903;-74
2023/07/29 13:35:26;;;;;;;;;;;33.10;99.90;;;;;;5137362;27;19915;-74
2023/07/29 13:37:52;;;;;;;;;;;33.20;99.90;;;;;;5137396;27;19910;-73
2023/07/29 13:40:17;;;;;;;;;;;33.30;99.90;;;;;;5137480;27;19952;-73
2023/07/29 13:42:43;;;;;;;;;;;33.00;99.90;;;;;;5137852;27;20003;-74
2023/07/29 13:45:09;;;;;;;;;;;33.20;99.90;;;;;;5137552;27;20452;-75
2023/07/29 13:47:35;;;;;;;;;;;33.00;99.90;;;;;;5137310;27;19903;-74
2023/07/29 13:50:01;;;;;;;;;;;32.90;99.90;;;;;;5137135;27;20014;-74
2023/07/29 13:52:27;;;;;;;;;;;33.00;99.90;;;;;;5135651;27;19903;-74
2023/07/29 13:54:52;;;;;;;;;;;33.20;99.90;;;;;;5137131;27;20289;-74
2023/07/29 13:57:18;;;;;;;;;;;33.40;99.90;;;;;;5137541;27;19954;-74
2023/07/29 13:59:44;;;;;;;;;;;33.50;99.90;;;;;;5136978;27;20262;-74
2023/07/29 14:02:10;;;;;;;;;;;33.60;99.90;;;;;;5137014;27;19903;-74
2023/07/29 14:04:35;;;;;;;;;;;33.60;99.90;;;;;;5136961;27;19903;-73
2023/07/29 14:07:01;;;;;;;;;;;33.80;99.90;;;;;;5137016;27;19910;-73
2023/07/29 14:09:27;;;;;;;;;;;33.60;99.90;;;;;;5135265;27;19911;-74
2023/07/29 14:11:56;;;;;;;;;;;33.70;99.90;;;;;;5137618;27;20016;-74
2023/07/29 14:14:22;;;;;;;;;;;33.80;99.90;;;;;;5136838;27;19903;-73